sensor_id;sensor_type;location;lat;lon;timestamp;pressure;altitude;pressure_sealevel;temperature;humidity
10988;BME280;5547;42.672;23.230;2022-10-16T00:01:03;94015.88;;;3.92;100.00
10988;BME280;5547;42.672;23.230;2022-10-16T00:03:29;94023.00;;;3.92;100.00
10988;BME280;5547;42.672;23.230;2022-10-16T00:05:54;94028.53;;;3.87;100.00
10988;BME280;5547;42.672;23.230;2022-10-16T00:08:23;94033.81;;;3.87;100.00
10988;BME280;5547;42.672;23.230;2022-10-16T00:10:48;94028.38;;;3.79;100.00
10988;BME280;5547;42.672;23.230;2022-10-16T00:13:14;94037.31;;;3.75;100.00
10988;BME280;5547;42.672;23.230;2022-10-16T00:15:39;94031.63;;;3.73;100.00
10988;BME280;5547;42.672;23.230;2022-10-16T00:18:04;94030.88;;;3.72;100.00
10988;BME280;5547;42.672;23.230;2022-10-16T00:20:30;94028.25;;;3.72;100.00
10988;BME280;5547;42.672;23.230;2022-10-16T00:22:58;94040.69;;;3.75;100.00
10988;BME280;5547;42.672;23.230;2022-10-16T00:25:23;94035.44;;;3.75;100.00
10988;BME280;5547;42.672;23.230;2022-10-16T00:27:49;94038.06;;;3.75;100.00
10988;BME280;5547;42.672;23.230;2022-10-16T00:30:14;94035.09;;;3.77;100.00
10988;BME280;5547;42.672;23.230;2022-10-16T00:32:39;94037.38;;;3.78;100.00
10988;BME280;5547;42.672;23.230;2022-10-16T00:35:05;94040.59;;;3.72;100.00
10988;BME280;5547;42.672;23.230;2022-10-16T00:37:30;94040.13;;;3.66;100.00
10988;BME280;5547;42.672;23.230;2022-10-16T00:39:55;94041.63;;;3.67;100.00
10988;BME280;5547;42.672;23.230;2022-10-16T00:42:21;94037.34;;;3.59;100.00
10988;BME280;5547;42.672;23.230;2022-10-16T00:44:48;94034.75;;;3.63;100.00
10988;BME280;5547;42.672;23.230;2022-10-16T00:48:00;94040.72;;;3.60;100.00
10988;BME280;5547;42.672;23.230;2022-10-16T00:50:11;94032.81;;;3.60;100.00
10988;BME280;5547;42.672;23.230;2022-10-16T00:52:39;94028.31;;;3.60;100.00
10988;BME280;5547;42.672;23.230;2022-10-16T00:55:05;94040.56;;;3.52;100.00
10988;BME280;5547;42.672;23.230;2022-10-16T00:57:31;94037.59;;;3.54;100.00
10988;BME280;5547;42.672;23.230;2022-10-16T00:59:56;94037.94;;;3.52;100.00
10988;BME280;5547;42.672;23.230;2022-10-16T01:02:22;94036.00;;;3.49;100.00
10988;BME280;5547;42.672;23.230;2022-10-16T01:04:48;94029.13;;;3.45;100.00
10988;BME280;5547;42.672;23.230;2022-10-16T01:12:34;94035.91;;;3.46;100.00
10988;BME280;5547;42.672;23.230;2022-10-16T01:22:37;94037.88;;;3.33;100.00
10988;BME280;5547;42.672;23.230;2022-10-16T01:25:04;94031.41;;;3.30;100.00
10988;BME280;5547;42.672;23.230;2022-10-16T01:27:30;94028.69;;;3.27;100.00
10988;BME280;5547;42.672;23.230;2022-10-16T01:30:11;94019.47;;;3.33;100.00
10988;BME280;5547;42.672;23.230;2022-10-16T01:35:22;94027.25;;;3.29;100.00
10988;BME280;5547;42.672;23.230;2022-10-16T01:37:54;94031.66;;;3.25;100.00
10988;BME280;5547;42.672;23.230;2022-10-16T01:40:21;94030.56;;;3.26;100.00
10988;BME280;5547;42.672;23.230;2022-10-16T01:42:56;94029.78;;;3.26;100.00
10988;BME280;5547;42.672;23.230;2022-10-16T01:45:24;94033.19;;;3.26;100.00
10988;BME280;5547;42.672;23.230;2022-10-16T01:47:49;94037.94;;;3.21;100.00
10988;BME280;5547;42.672;23.230;2022-10-16T01:50:17;94040.50;;;3.17;100.00
10988;BME280;5547;42.672;23.230;2022-10-16T01:52:45;94038.94;;;3.16;100.00
10988;BME280;5547;42.672;23.230;2022-10-16T01:55:12;94046.41;;;3.14;100.00
10988;BME280;5547;42.672;23.230;2022-10-16T01:57:39;94047.19;;;3.14;100.00
10988;BME280;5547;42.672;23.230;2022-10-16T02:00:07;94054.66;;;3.12;100.00
10988;BME280;5547;42.672;23.230;2022-10-16T02:02:34;94048.19;;;3.10;100.00
10988;BME280;5547;42.672;23.230;2022-10-16T02:05:09;94048.63;;;3.12;100.00
10988;BME280;5547;42.672;23.230;2022-10-16T02:07:35;94056.84;;;3.10;100.00
10988;BME280;5547;42.672;23.230;2022-10-16T02:10:00;94059.16;;;3.12;100.00
10988;BME280;5547;42.672;23.230;2022-10-16T02:12:27;94056.41;;;3.08;100.00
10988;BME280;5547;42.672;23.230;2022-10-16T02:14:53;94058.94;;;3.05;100.00
10988;BME280;5547;42.672;23.230;2022-10-16T02:17:19;94071.69;;;3.03;100.00
10988;BME280;5547;42.672;23.230;2022-10-16T02:19:45;94069.06;;;3.03;100.00
10988;BME280;5547;42.672;23.230;2022-10-16T02:22:45;94069.56;;;3.08;100.00
10988;BME280;5547;42.672;23.230;2022-10-16T02:27:57;94077.69;;;3.03;100.00
10988;BME280;5547;42.672;23.230;2022-10-16T02:32:50;94079.59;;;2.90;100.00
10988;BME280;5547;42.672;23.230;2022-10-16T02:35:17;94069.19;;;2.94;100.00
10988;BME280;5547;42.672;23.230;2022-10-16T02:37:43;94070.38;;;2.97;100.00
10988;BME280;5547;42.672;23.230;2022-10-16T02:40:10;94072.91;;;2.93;100.00
10988;BME280;5547;42.672;23.230;2022-10-16T02:42:37;94077.41;;;2.92;100.00
10988;BME280;5547;42.672;23.230;2022-10-16T02:45:03;94080.38;;;2.91;100.00
10988;BME280;5547;42.672;23.230;2022-10-16T02:47:28;94085.53;;;2.87;100.00
10988;BME280;5547;42.672;23.230;2022-10-16T02:49:53;94085.88;;;2.86;100.00
10988;BME280;5547;42.672;23.230;2022-10-16T02:52:19;94088.84;;;2.84;100.00
10988;BME280;5547;42.672;23.230;2022-10-16T02:54:44;94086.88;;;2.81;100.00
10988;BME280;5547;42.672;23.230;2022-10-16T02:57:09;94089.75;;;2.76;100.00
10988;BME280;5547;42.672;23.230;2022-10-16T02:59:34;94091.75;;;2.67;100.00
10988;BME280;5547;42.672;23.230;2022-10-16T03:02:00;94090.25;;;2.66;100.00
10988;BME280;5547;42.672;23.230;2022-10-16T03:04:25;94087.19;;;2.64;100.00
10988;BME280;5547;42.672;23.230;2022-10-16T03:06:50;94089.25;;;2.58;100.00
10988;BME280;5547;42.672;23.230;2022-10-16T03:09:15;94090.69;;;2.56;100.00
10988;BME280;5547;42.672;23.230;2022-10-16T03:11:41;94091.38;;;2.52;100.00
10988;BME280;5547;42.672;23.230;2022-10-16T03:14:06;94084.69;;;2.55;100.00
10988;BME280;5547;42.672;23.230;2022-10-16T03:16:32;94089.19;;;2.55;100.00
10988;BME280;5547;42.672;23.230;2022-10-16T03:18:57;94084.06;;;2.46;100.00
10988;BME280;5547;42.672;23.230;2022-10-16T03:21:22;94095.75;;;2.48;100.00
10988;BME280;5547;42.672;23.230;2022-10-16T03:23:47;94097.50;;;2.44;100.00
10988;BME280;5547;42.672;23.230;2022-10-16T03:26:13;94091.25;;;2.49;100.00
10988;BME280;5547;42.672;23.230;2022-10-16T03:28:38;94098.28;;;2.45;100.00
10988;BME280;5547;42.672;23.230;2022-10-16T03:31:03;94107.50;;;2.39;100.00
10988;BME280;5547;42.672;23.230;2022-10-16T03:33:29;94111.50;;;2.48;100.00
10988;BME280;5547;42.672;23.230;2022-10-16T03:35:54;94107.56;;;2.42;100.00
10988;BME280;5547;42.672;23.230;2022-10-16T03:38:20;94107.38;;;2.35;100.00
10988;BME280;5547;42.672;23.230;2022-10-16T03:40:45;94099.25;;;2.40;100.00
10988;BME280;5547;42.672;23.230;2022-10-16T03:43:10;94099.19;;;2.37;100.00
10988;BME280;5547;42.672;23.230;2022-10-16T03:45:36;94098.31;;;2.33;100.00
10988;BME280;5547;42.672;23.230;2022-10-16T03:48:01;94097.88;;;2.30;100.00
10988;BME280;5547;42.672;23.230;2022-10-16T03:50:28;94096.25;;;2.26;100.00
10988;BME280;5547;42.672;23.230;2022-10-16T03:52:53;94092.97;;;2.29;100.00
10988;BME280;5547;42.672;23.230;2022-10-16T03:55:18;94098.53;;;2.27;100.00
10988;BME280;5547;42.672;23.230;2022-10-16T03:57:44;94098.78;;;2.22;100.00
10988;BME280;5547;42.672;23.230;2022-10-16T04:00:09;94093.28;;;2.27;100.00
10988;BME280;5547;42.672;23.230;2022-10-16T04:02:35;94098.00;;;2.22;100.00
10988;BME280;5547;42.672;23.230;2022-10-16T04:05:00;94100.28;;;2.23;100.00
10988;BME280;5547;42.672;23.230;2022-10-16T04:07:25;94093.09;;;2.20;100.00
10988;BME280;5547;42.672;23.230;2022-10-16T04:09:50;94094.28;;;2.23;100.00
10988;BME280;5547;42.672;23.230;2022-10-16T04:12:17;94092.41;;;2.23;100.00
10988;BME280;5547;42.672;23.230;2022-10-16T04:14:42;94088.94;;;2.19;100.00
10988;BME280;5547;42.672;23.230;2022-10-16T04:17:07;94092.53;;;2.15;100.00
10988;BME280;5547;42.672;23.230;2022-10-16T04:19:32;94095.59;;;2.17;100.00
10988;BME280;5547;42.672;23.230;2022-10-16T04:21:58;94093.22;;;2.12;100.00
10988;BME280;5547;42.672;23.230;2022-10-16T04:24:23;94097.16;;;2.05;100.00
10988;BME280;5547;42.672;23.230;2022-10-16T04:26:48;94095.41;;;2.09;100.00
10988;BME280;5547;42.672;23.230;2022-10-16T04:29:14;94101.06;;;2.24;100.00
10988;BME280;5547;42.672;23.230;2022-10-16T04:31:39;94101.72;;;2.21;100.00
10988;BME280;5547;42.672;23.230;2022-10-16T04:34:04;94096.38;;;2.05;100.00
10988;BME280;5547;42.672;23.230;2022-10-16T04:36:30;94101.66;;;1.93;100.00
10988;BME280;5547;42.672;23.230;2022-10-16T04:38:55;94100.56;;;1.94;100.00
10988;BME280;5547;42.672;23.230;2022-10-16T04:41:21;94109.84;;;2.03;100.00
10988;BME280;5547;42.672;23.230;2022-10-16T04:43:46;94115.31;;;1.98;100.00
10988;BME280;5547;42.672;23.230;2022-10-16T04:46:12;94110.72;;;1.95;100.00
10988;BME280;5547;42.672;23.230;2022-10-16T04:48:37;94117.72;;;2.03;100.00
10988;BME280;5547;42.672;23.230;2022-10-16T04:51:03;94114.75;;;2.05;100.00
10988;BME280;5547;42.672;23.230;2022-10-16T04:53:29;94119.44;;;2.36;100.00
10988;BME280;5547;42.672;23.230;2022-10-16T04:55:54;94121.25;;;2.36;100.00
10988;BME280;5547;42.672;23.230;2022-10-16T04:58:21;94128.94;;;2.28;100.00
10988;BME280;5547;42.672;23.230;2022-10-16T05:00:46;94131.91;;;2.27;100.00
10988;BME280;5547;42.672;23.230;2022-10-16T05:03:12;94138.34;;;2.29;100.00
10988;BME280;5547;42.672;23.230;2022-10-16T05:05:41;94128.28;;;2.31;100.00
10988;BME280;5547;42.672;23.230;2022-10-16T05:08:07;94134.19;;;2.41;100.00
10988;BME280;5547;42.672;23.230;2022-10-16T05:10:33;94134.47;;;2.51;100.00
10988;BME280;5547;42.672;23.230;2022-10-16T05:12:58;94138.06;;;2.59;100.00
10988;BME280;5547;42.672;23.230;2022-10-16T05:15:23;94141.78;;;2.58;100.00
10988;BME280;5547;42.672;23.230;2022-10-16T05:17:51;94135.22;;;2.64;100.00
10988;BME280;5547;42.672;23.230;2022-10-16T05:20:17;94146.66;;;2.72;100.00
10988;BME280;5547;42.672;23.230;2022-10-16T05:22:42;94147.72;;;2.83;100.00
10988;BME280;5547;42.672;23.230;2022-10-16T05:25:07;94154.72;;;2.91;100.00
10988;BME280;5547;42.672;23.230;2022-10-16T05:27:33;94150.53;;;3.03;100.00
10988;BME280;5547;42.672;23.230;2022-10-16T05:29:59;94148.16;;;3.13;100.00
10988;BME280;5547;42.672;23.230;2022-10-16T05:32:24;94153.69;;;3.24;100.00
10988;BME280;5547;42.672;23.230;2022-10-16T05:34:50;94151.75;;;3.37;100.00
10988;BME280;5547;42.672;23.230;2022-10-16T05:37:15;94161.22;;;3.54;100.00
10988;BME280;5547;42.672;23.230;2022-10-16T05:39:41;94153.66;;;3.84;100.00
10988;BME280;5547;42.672;23.230;2022-10-16T05:42:06;94155.63;;;4.03;100.00
10988;BME280;5547;42.672;23.230;2022-10-16T05:44:31;94154.69;;;4.11;100.00
10988;BME280;5547;42.672;23.230;2022-10-16T05:46:57;94155.00;;;4.26;100.00
10988;BME280;5547;42.672;23.230;2022-10-16T05:49:22;94161.75;;;4.42;100.00
10988;BME280;5547;42.672;23.230;2022-10-16T05:51:47;94163.84;;;4.53;100.00
10988;BME280;5547;42.672;23.230;2022-10-16T05:54:13;94164.97;;;4.71;100.00
10988;BME280;5547;42.672;23.230;2022-10-16T05:56:38;94174.38;;;4.88;100.00
10988;BME280;5547;42.672;23.230;2022-10-16T05:59:03;94171.53;;;4.97;100.00
10988;BME280;5547;42.672;23.230;2022-10-16T06:01:29;94179.28;;;5.09;100.00
10988;BME280;5547;42.672;23.230;2022-10-16T06:03:56;94187.34;;;5.16;100.00
10988;BME280;5547;42.672;23.230;2022-10-16T06:06:23;94184.22;;;5.30;100.00
10988;BME280;5547;42.672;23.230;2022-10-16T06:08:49;94193.72;;;5.35;100.00
10988;BME280;5547;42.672;23.230;2022-10-16T06:11:15;94193.56;;;5.47;100.00
10988;BME280;5547;42.672;23.230;2022-10-16T06:13:41;94196.31;;;5.54;100.00
10988;BME280;5547;42.672;23.230;2022-10-16T06:16:07;94193.13;;;5.64;100.00
10988;BME280;5547;42.672;23.230;2022-10-16T06:18:33;94200.41;;;5.71;100.00
10988;BME280;5547;42.672;23.230;2022-10-16T06:20:58;94196.72;;;5.76;100.00
10988;BME280;5547;42.672;23.230;2022-10-16T06:23:24;94195.69;;;5.84;100.00
10988;BME280;5547;42.672;23.230;2022-10-16T06:25:49;94207.31;;;5.99;100.00
10988;BME280;5547;42.672;23.230;2022-10-16T06:28:15;94212.06;;;6.13;100.00
10988;BME280;5547;42.672;23.230;2022-10-16T06:30:41;94210.94;;;6.14;100.00
10988;BME280;5547;42.672;23.230;2022-10-16T06:33:08;94207.41;;;6.29;100.00
10988;BME280;5547;42.672;23.230;2022-10-16T06:35:33;94213.25;;;6.42;100.00
10988;BME280;5547;42.672;23.230;2022-10-16T06:37:58;94207.88;;;6.61;100.00
10988;BME280;5547;42.672;23.230;2022-10-16T06:40:23;94226.41;;;6.65;99.77
10988;BME280;5547;42.672;23.230;2022-10-16T06:42:49;94212.78;;;6.63;94.33
10988;BME280;5547;42.672;23.230;2022-10-16T06:45:14;94217.31;;;6.62;93.75
10988;BME280;5547;42.672;23.230;2022-10-16T06:47:39;94227.50;;;6.87;95.96
10988;BME280;5547;42.672;23.230;2022-10-16T06:50:05;94229.56;;;7.01;94.18
10988;BME280;5547;42.672;23.230;2022-10-16T06:52:33;94222.47;;;7.08;93.03
10988;BME280;5547;42.672;23.230;2022-10-16T06:54:59;94232.53;;;7.26;92.81
10988;BME280;5547;42.672;23.230;2022-10-16T06:57:28;94237.84;;;7.29;90.77
10988;BME280;5547;42.672;23.230;2022-10-16T06:59:53;94241.63;;;7.28;91.25
10988;BME280;5547;42.672;23.230;2022-10-16T07:02:19;94241.69;;;7.35;90.22
10988;BME280;5547;42.672;23.230;2022-10-16T07:04:44;94246.41;;;7.49;89.97
10988;BME280;5547;42.672;23.230;2022-10-16T07:07:09;94245.00;;;7.59;90.90
10988;BME280;5547;42.672;23.230;2022-10-16T07:09:34;94251.13;;;7.67;88.40
10988;BME280;5547;42.672;23.230;2022-10-16T07:12:00;94247.34;;;7.68;88.92
10988;BME280;5547;42.672;23.230;2022-10-16T07:14:25;94252.78;;;7.82;87.43
10988;BME280;5547;42.672;23.230;2022-10-16T07:16:50;94261.16;;;7.84;85.45
10988;BME280;5547;42.672;23.230;2022-10-16T07:19:15;94261.94;;;7.88;87.43
10988;BME280;5547;42.672;23.230;2022-10-16T07:21:42;94257.13;;;7.97;85.34
10988;BME280;5547;42.672;23.230;2022-10-16T07:24:12;94262.94;;;8.14;85.18
10988;BME280;5547;42.672;23.230;2022-10-16T07:26:38;94257.53;;;8.03;85.39
10988;BME280;5547;42.672;23.230;2022-10-16T07:29:05;94253.16;;;8.21;83.31
10988;BME280;5547;42.672;23.230;2022-10-16T07:31:31;94260.41;;;8.28;84.35
10988;BME280;5547;42.672;23.230;2022-10-16T07:33:57;94257.94;;;8.46;82.66
10988;BME280;5547;42.672;23.230;2022-10-16T07:36:23;94261.78;;;8.52;82.49
10988;BME280;5547;42.672;23.230;2022-10-16T07:38:48;94264.22;;;8.75;82.44
10988;BME280;5547;42.672;23.230;2022-10-16T07:41:14;94261.56;;;8.72;80.52
10988;BME280;5547;42.672;23.230;2022-10-16T07:43:40;94265.44;;;8.89;81.60
10988;BME280;5547;42.672;23.230;2022-10-16T07:46:05;94267.75;;;8.90;79.41
10988;BME280;5547;42.672;23.230;2022-10-16T07:48:31;94263.66;;;9.07;78.91
10988;BME280;5547;42.672;23.230;2022-10-16T07:50:57;94271.25;;;9.12;77.85
10988;BME280;5547;42.672;23.230;2022-10-16T07:53:23;94268.22;;;9.07;78.38
10988;BME280;5547;42.672;23.230;2022-10-16T07:55:48;94279.63;;;9.11;77.02
10988;BME280;5547;42.672;23.230;2022-10-16T07:58:14;94279.31;;;9.27;76.84
10988;BME280;5547;42.672;23.230;2022-10-16T08:00:39;94282.34;;;9.29;76.49
10988;BME280;5547;42.672;23.230;2022-10-16T08:03:04;94272.56;;;9.43;75.54
10988;BME280;5547;42.672;23.230;2022-10-16T08:05:30;94274.13;;;9.48;75.48
10988;BME280;5547;42.672;23.230;2022-10-16T08:07:56;94277.53;;;9.52;75.74
10988;BME280;5547;42.672;23.230;2022-10-16T08:10:22;94266.22;;;9.70;75.34
10988;BME280;5547;42.672;23.230;2022-10-16T08:12:48;94276.09;;;9.73;74.88
10988;BME280;5547;42.672;23.230;2022-10-16T08:15:13;94272.38;;;10.02;74.39
10988;BME280;5547;42.672;23.230;2022-10-16T08:17:38;94271.28;;;10.21;72.90
10988;BME280;5547;42.672;23.230;2022-10-16T08:20:04;94267.84;;;10.03;73.33
10988;BME280;5547;42.672;23.230;2022-10-16T08:22:29;94273.19;;;10.17;72.85
10988;BME280;5547;42.672;23.230;2022-10-16T08:24:55;94270.91;;;10.19;73.27
10988;BME280;5547;42.672;23.230;2022-10-16T08:27:20;94275.50;;;10.33;73.01
10988;BME280;5547;42.672;23.230;2022-10-16T08:29:45;94268.28;;;10.34;70.65
10988;BME280;5547;42.672;23.230;2022-10-16T08:32:11;94262.59;;;10.32;72.11
10988;BME280;5547;42.672;23.230;2022-10-16T08:34:36;94272.50;;;10.56;70.61
10988;BME280;5547;42.672;23.230;2022-10-16T08:37:02;94270.56;;;10.82;70.37
10988;BME280;5547;42.672;23.230;2022-10-16T08:39:27;94267.91;;;10.78;69.37
10988;BME280;5547;42.672;23.230;2022-10-16T08:44:40;94266.34;;;10.95;69.62
10988;BME280;5547;42.672;23.230;2022-10-16T08:47:22;94272.03;;;11.15;68.84
10988;BME280;5547;42.672;23.230;2022-10-16T08:49:58;94272.41;;;11.28;66.39
10988;BME280;5547;42.672;23.230;2022-10-16T08:52:25;94271.28;;;11.25;66.67
10988;BME280;5547;42.672;23.230;2022-10-16T08:54:53;94273.91;;;11.29;66.72
10988;BME280;5547;42.672;23.230;2022-10-16T08:57:20;94284.19;;;11.20;65.87
10988;BME280;5547;42.672;23.230;2022-10-16T08:59:46;94286.09;;;11.30;65.63
10988;BME280;5547;42.672;23.230;2022-10-16T09:04:48;94285.25;;;11.58;64.98
10988;BME280;5547;42.672;23.230;2022-10-16T09:07:24;94286.72;;;11.66;64.57
10988;BME280;5547;42.672;23.230;2022-10-16T09:10:19;94290.09;;;11.81;62.90
10988;BME280;5547;42.672;23.230;2022-10-16T09:15:32;94281.34;;;11.77;63.21
10988;BME280;5547;42.672;23.230;2022-10-16T09:23:00;94273.88;;;12.28;59.72
10988;BME280;5547;42.672;23.230;2022-10-16T09:25:33;94280.31;;;12.34;58.45
10988;BME280;5547;42.672;23.230;2022-10-16T09:27:58;94275.53;;;12.04;58.13
10988;BME280;5547;42.672;23.230;2022-10-16T09:30:26;94285.03;;;12.08;59.50
10988;BME280;5547;42.672;23.230;2022-10-16T09:32:52;94280.41;;;12.19;54.94
10988;BME280;5547;42.672;23.230;2022-10-16T09:35:22;94286.47;;;12.24;57.75
10988;BME280;5547;42.672;23.230;2022-10-16T09:37:50;94277.94;;;12.47;57.87
10988;BME280;5547;42.672;23.230;2022-10-16T09:42:52;94274.78;;;12.63;54.43
10988;BME280;5547;42.672;23.230;2022-10-16T09:45:21;94277.34;;;12.77;53.89
10988;BME280;5547;42.672;23.230;2022-10-16T09:47:46;94276.19;;;12.78;55.30
10988;BME280;5547;42.672;23.230;2022-10-16T09:50:22;94268.59;;;12.73;54.75
10988;BME280;5547;42.672;23.230;2022-10-16T09:52:48;94263.63;;;12.75;52.31
10988;BME280;5547;42.672;23.230;2022-10-16T09:55:15;94261.97;;;12.88;52.31
10988;BME280;5547;42.672;23.230;2022-10-16T09:57:50;94267.31;;;12.92;53.39
10988;BME280;5547;42.672;23.230;2022-10-16T10:00:16;94261.13;;;12.98;53.52
10988;BME280;5547;42.672;23.230;2022-10-16T10:02:42;94263.09;;;12.91;50.57
10988;BME280;5547;42.672;23.230;2022-10-16T10:05:17;94258.25;;;12.78;51.10
10988;BME280;5547;42.672;23.230;2022-10-16T10:07:43;94257.81;;;12.83;52.03
10988;BME280;5547;42.672;23.230;2022-10-16T10:10:18;94260.47;;;13.25;50.86
10988;BME280;5547;42.672;23.230;2022-10-16T10:12:44;94259.84;;;13.14;52.04
10988;BME280;5547;42.672;23.230;2022-10-16T10:15:13;94257.97;;;13.11;52.43
10988;BME280;5547;42.672;23.230;2022-10-16T10:17:46;94256.34;;;13.17;50.39
10988;BME280;5547;42.672;23.230;2022-10-16T10:22:44;94261.59;;;13.31;49.74
10988;BME280;5547;42.672;23.230;2022-10-16T10:30:15;94242.66;;;13.53;49.55
10988;BME280;5547;42.672;23.230;2022-10-16T10:32:51;94242.09;;;13.34;49.98
10988;BME280;5547;42.672;23.230;2022-10-16T10:35:22;94247.19;;;13.18;50.58
10988;BME280;5547;42.672;23.230;2022-10-16T10:37:55;94243.69;;;13.28;51.62
10988;BME280;5547;42.672;23.230;2022-10-16T10:40:29;94231.31;;;13.41;51.37
10988;BME280;5547;42.672;23.230;2022-10-16T10:45:48;94231.66;;;13.78;47.35
10988;BME280;5547;42.672;23.230;2022-10-16T10:53:11;94225.09;;;13.82;47.02
10988;BME280;5547;42.672;23.230;2022-10-16T10:55:49;94216.09;;;13.69;47.32
10988;BME280;5547;42.672;23.230;2022-10-16T11:11:39;94216.88;;;14.24;46.26
10988;BME280;5547;42.672;23.230;2022-10-16T11:14:49;94210.00;;;14.23;45.92
10988;BME280;5547;42.672;23.230;2022-10-16T11:16:59;94205.69;;;14.33;46.01
10988;BME280;5547;42.672;23.230;2022-10-16T11:19:41;94206.69;;;14.15;45.20
10988;BME280;5547;42.672;23.230;2022-10-16T11:22:12;94207.53;;;14.36;47.22
10988;BME280;5547;42.672;23.230;2022-10-16T11:25:14;94198.28;;;14.40;46.55
10988;BME280;5547;42.672;23.230;2022-10-16T11:27:37;94199.19;;;14.30;48.62
10988;BME280;5547;42.672;23.230;2022-10-16T11:30:05;94197.28;;;14.31;43.86
10988;BME280;5547;42.672;23.230;2022-10-16T11:32:35;94197.41;;;14.23;46.15
10988;BME280;5547;42.672;23.230;2022-10-16T11:35:08;94191.69;;;14.21;45.06
10988;BME280;5547;42.672;23.230;2022-10-16T11:37:38;94199.16;;;14.34;45.98
10988;BME280;5547;42.672;23.230;2022-10-16T11:43:11;94191.97;;;14.54;45.22
10988;BME280;5547;42.672;23.230;2022-10-16T11:45:46;94203.03;;;14.56;47.43
10988;BME280;5547;42.672;23.230;2022-10-16T11:48:33;94198.53;;;14.73;45.99
10988;BME280;5547;42.672;23.230;2022-10-16T11:51:14;94196.38;;;14.64;46.52
10988;BME280;5547;42.672;23.230;2022-10-16T11:56:11;94198.16;;;14.75;45.89
10988;BME280;5547;42.672;23.230;2022-10-16T12:03:38;94194.41;;;14.68;45.92
10988;BME280;5547;42.672;23.230;2022-10-16T12:08:45;94190.97;;;14.44;41.74
10988;BME280;5547;42.672;23.230;2022-10-16T12:11:24;94186.91;;;14.60;43.92
10988;BME280;5547;42.672;23.230;2022-10-16T12:16:30;94192.06;;;14.94;44.78
10988;BME280;5547;42.672;23.230;2022-10-16T12:19:12;94196.13;;;15.02;42.56
10988;BME280;5547;42.672;23.230;2022-10-16T12:21:38;94195.47;;;14.95;43.00
10988;BME280;5547;42.672;23.230;2022-10-16T12:24:03;94197.66;;;14.80;42.77
10988;BME280;5547;42.672;23.230;2022-10-16T12:26:37;94200.47;;;14.73;42.30
10988;BME280;5547;42.672;23.230;2022-10-16T12:30:04;94198.59;;;14.69;43.46
10988;BME280;5547;42.672;23.230;2022-10-16T12:31:57;94197.88;;;14.42;44.06
10988;BME280;5547;42.672;23.230;2022-10-16T12:34:35;94192.25;;;14.60;44.28
10988;BME280;5547;42.672;23.230;2022-10-16T12:37:10;94201.41;;;14.86;44.48
10988;BME280;5547;42.672;23.230;2022-10-16T12:39:36;94198.94;;;14.95;43.76
10988;BME280;5547;42.672;23.230;2022-10-16T12:42:05;94194.09;;;14.86;44.99
10988;BME280;5547;42.672;23.230;2022-10-16T12:44:34;94193.34;;;14.86;44.42
10988;BME280;5547;42.672;23.230;2022-10-16T12:47:00;94198.47;;;15.00;44.39
10988;BME280;5547;42.672;23.230;2022-10-16T12:49:36;94191.16;;;15.01;42.94
10988;BME280;5547;42.672;23.230;2022-10-16T12:52:02;94198.16;;;14.75;44.00
10988;BME280;5547;42.672;23.230;2022-10-16T12:54:29;94202.84;;;14.90;43.18
10988;BME280;5547;42.672;23.230;2022-10-16T12:57:18;94194.84;;;14.87;42.92
10988;BME280;5547;42.672;23.230;2022-10-16T13:07:44;94209.53;;;14.79;44.05
10988;BME280;5547;42.672;23.230;2022-10-16T13:10:28;94207.31;;;14.74;45.54
10988;BME280;5547;42.672;23.230;2022-10-16T13:13:06;94206.22;;;14.71;43.12
10988;BME280;5547;42.672;23.230;2022-10-16T13:15:36;94207.31;;;14.74;42.49
10988;BME280;5547;42.672;23.230;2022-10-16T13:18:19;94208.75;;;14.58;44.08
10988;BME280;5547;42.672;23.230;2022-10-16T13:20:59;94209.78;;;14.64;45.19
10988;BME280;5547;42.672;23.230;2022-10-16T13:23:30;94215.13;;;14.64;45.08
10988;BME280;5547;42.672;23.230;2022-10-16T13:26:01;94209.38;;;14.66;45.00
10988;BME280;5547;42.672;23.230;2022-10-16T13:28:30;94204.28;;;14.71;44.96
10988;BME280;5547;42.672;23.230;2022-10-16T13:30:57;94211.66;;;14.67;45.16
10988;BME280;5547;42.672;23.230;2022-10-16T13:33:33;94208.19;;;14.67;44.36
10988;BME280;5547;42.672;23.230;2022-10-16T13:35:59;94209.88;;;14.57;45.31
10988;BME280;5547;42.672;23.230;2022-10-16T13:38:26;94214.34;;;14.67;44.98
10988;BME280;5547;42.672;23.230;2022-10-16T13:40:56;94211.19;;;14.73;45.11
10988;BME280;5547;42.672;23.230;2022-10-16T13:43:23;94214.59;;;14.73;44.88
10988;BME280;5547;42.672;23.230;2022-10-16T13:45:54;94224.22;;;14.70;44.71
10988;BME280;5547;42.672;23.230;2022-10-16T13:48:19;94214.50;;;14.53;45.78
10988;BME280;5547;42.672;23.230;2022-10-16T13:50:45;94222.88;;;14.32;45.85
10988;BME280;5547;42.672;23.230;2022-10-16T13:53:12;94217.03;;;14.40;45.58
10988;BME280;5547;42.672;23.230;2022-10-16T13:55:38;94214.50;;;14.53;45.07
10988;BME280;5547;42.672;23.230;2022-10-16T13:58:14;94210.94;;;14.63;44.34
10988;BME280;5547;42.672;23.230;2022-10-16T14:00:39;94218.66;;;14.58;44.16
10988;BME280;5547;42.672;23.230;2022-10-16T14:03:15;94212.31;;;14.48;44.43
10988;BME280;5547;42.672;23.230;2022-10-16T14:05:52;94211.72;;;14.37;45.83
10988;BME280;5547;42.672;23.230;2022-10-16T14:08:18;94215.91;;;14.38;44.91
10988;BME280;5547;42.672;23.230;2022-10-16T14:10:47;94223.38;;;14.50;44.81
10988;BME280;5547;42.672;23.230;2022-10-16T14:13:14;94224.50;;;14.25;47.05
10988;BME280;5547;42.672;23.230;2022-10-16T14:15:45;94215.19;;;14.10;46.84
10988;BME280;5547;42.672;23.230;2022-10-16T14:18:19;94220.09;;;14.39;45.39
10988;BME280;5547;42.672;23.230;2022-10-16T14:20:45;94225.44;;;14.39;45.01
10988;BME280;5547;42.672;23.230;2022-10-16T14:23:28;94223.97;;;14.34;44.33
10988;BME280;5547;42.672;23.230;2022-10-16T14:26:04;94218.81;;;14.23;44.61
10988;BME280;5547;42.672;23.230;2022-10-16T14:28:30;94229.16;;;14.21;44.86
10988;BME280;5547;42.672;23.230;2022-10-16T14:30:57;94229.09;;;14.25;45.02
10988;BME280;5547;42.672;23.230;2022-10-16T14:35:56;94229.28;;;14.14;44.60
10988;BME280;5547;42.672;23.230;2022-10-16T14:38:24;94238.53;;;14.06;44.46